Shin Itikawa Maru — JD3490 — position and weather

sailwx.info

Track history (hours):
 
Tides and Currents Weather Stations Pressure Air Temp Water Temp Dewpoint Dewpoint Depression Visibility Wind Speed Wind Dir Waves Ship Positions

Shin Itikawa Maru

Last reported at 2018-Feb-25 03:14 UTC. Time now 2018-Feb-25 06:13 UTC.
Position N 34°35' E 138°48'.

Length 84 m; draft 4.1 m.

Type: Cargo ship. MMSI: 431004252.

Date/timePositionNaut miles runAvg speedWind from/ knotsBaromVisibWave heightAir tempDewpointWater temp
2018-Feb-25 03:14N 34°35' E 138°48'312.1
2018-Feb-25 02:59N 34°35' E 138°51'711.4
2018-Feb-25 02:23N 34°38' E 138°59'712.0
2018-Feb-25 01:50N 34°42' E 139°05'512.3
2018-Feb-25 01:26N 34°46' E 139°09'1411.4
2018-Feb-25 00:13N 34°56' E 139°21'411.1
2018-Feb-24 23:52N 34°58' E 139°25'711.0
2018-Feb-24 23:11N 35°02' E 139°33'211.6
2018-Feb-24 22:59N 35°03' E 139°35'511.5
2018-Feb-24 22:30N 35°06' E 139°40'611.3
2018-Feb-24 22:00N 35°11' E 139°45'510.9
2018-Feb-24 21:30N 35°16' E 139°46'611.1
2018-Feb-24 21:00N 35°21' E 139°42'510.7
2018-Feb-24 20:30N 35°26' E 139°45'611.5
2018-Feb-24 20:00N 35°29' E 139°50'611.8
2018-Feb-24 19:30N 35°34' E 139°55'510.6
2018-Feb-24 19:00N 35°39' E 139°58'1 0.1
2018-Feb-24 13:41N 35°38' E 139°59'2 7.8
2018-Feb-24 13:28N 35°36' E 139°58'0 0.0
2018-Feb-24 11:18N 35°36' E 139°58'0 0.0
2018-Feb-24 11:00N 35°36' E 139°58'0 0.0
2018-Feb-24 10:15N 35°36' E 139°58'0 0.0
2018-Feb-24 09:24N 35°36' E 139°58'0 0.0
2018-Feb-24 09:00N 35°36' E 139°58'0 0.0
2018-Feb-24 08:27N 35°36' E 139°58'0 0.0
2018-Feb-24 08:00N 35°36' E 139°58'0 0.0
2018-Feb-24 07:30N 35°36' E 139°58'0 0.0
2018-Feb-24 06:42N 35°36' E 139°58'0 0.0
2018-Feb-24 06:30N 35°36' E 139°58'0 0.0
2018-Feb-24 05:54N 35°36' E 139°58'0 0.0
2018-Feb-24 04:30N 35°36' E 139°58'0 0.0
2018-Feb-24 03:06N 35°36' E 139°58'0 0.0
2018-Feb-24 02:54N 35°36' E 139°58'0 0.0
2018-Feb-24 02:30N 35°36' E 139°58'5 7.9
2018-Feb-24 01:52N 35°32' E 139°55'411.5
2018-Feb-24 01:30N 35°29' E 139°52'611.4
2018-Feb-24 01:00N 35°25' E 139°46'510.7
2018-Feb-24 00:31N 35°24' E 139°40'1 2.6
2018-Feb-24 00:00N 35°23' E 139°38'0 0.0
2018-Feb-23 23:28N 35°23' E 139°38'0 0.0
2018-Feb-23 23:01N 35°23' E 139°38'0 1.0
2018-Feb-23 22:31N 35°24' E 139°39'4 8.7
2018-Feb-23 22:00N 35°20' E 139°42'612.0
2018-Feb-23 21:31N 35°16' E 139°47'611.8
2018-Feb-23 21:00N 35°10' E 139°46'611.6
2018-Feb-23 20:30N 35°05' E 139°42'611.7
2018-Feb-23 20:00N 35°01' E 139°37'711.5
2018-Feb-23 19:26N 34°57' E 139°30'1312.0
2018-Feb-23 18:21N 34°49' E 139°17'411.9
2018-Feb-23 17:59N 34°46' E 139°13'711.6
2018-Feb-23 17:22N 34°42' E 139°07'411.0
2018-Feb-23 16:59N 34°39' E 139°02'511.1
2018-Feb-23 16:30N 34°36' E 138°57'1310.5
2018-Feb-23 15:16N 34°34' E 138°42'310.6
2018-Feb-23 14:59N 34°34' E 138°38'610.5
2018-Feb-23 14:26N 34°33' E 138°31'511.1
2018-Feb-23 13:57N 34°33' E 138°25'611.5
2018-Feb-23 13:28N 34°33' E 138°18'711.6
2018-Feb-23 12:53N 34°31' E 138°10'160 9.4
2018-Feb-22 19:53N 33°52' E 135°02'512.0
2018-Feb-22 19:30N 33°56' E 134°58'611.7
2018-Feb-22 19:00N 34°00' E 134°54'612.1
2018-Feb-22 18:30N 34°05' E 134°49'612.2
2018-Feb-22 18:00N 34°09' E 134°44'612.0
2018-Feb-22 17:30N 34°14' E 134°39'612.1
2018-Feb-22 17:00N 34°17' E 134°33'611.3
2018-Feb-22 16:30N 34°19' E 134°27'5 9.6
2018-Feb-22 16:00N 34°21' E 134°22'910.9
2018-Feb-22 15:10N 34°25' E 134°12'2 0.1
2018-Feb-20 16:31N 34°24' E 134°15'111.6
2018-Feb-20 16:28N 34°24' E 134°15'511.2
2018-Feb-20 16:00N 34°23' E 134°21'711.9
2018-Feb-20 15:27N 34°19' E 134°28'512.1
2018-Feb-20 15:00N 34°17' E 134°34'611.5
2018-Feb-20 14:28N 34°13' E 134°40'612.6
2018-Feb-20 14:00N 34°09' E 134°45'611.8
2018-Feb-20 13:30N 34°04' E 134°49'612.1
2018-Feb-20 13:01N 33°60' E 134°54'612.2
2018-Feb-20 12:30N 33°55' E 134°59'17810.0
2018-Feb-19 18:46N 34°33' E 138°29'1611.9
2018-Feb-19 17:25N 34°35' E 138°49'511.3
2018-Feb-19 17:00N 34°35' E 138°54'711.0
2018-Feb-19 16:20N 34°40' E 139°02'412.3
2018-Feb-19 16:00N 34°43' E 139°05'712.6
2018-Feb-19 15:28N 34°48' E 139°10'1511.9
2018-Feb-19 14:11N 34°58' E 139°24'311.9
2018-Feb-19 13:58N 34°59' E 139°27'611.7
2018-Feb-19 13:29N 35°02' E 139°33'612.1
2018-Feb-19 13:00N 35°05' E 139°39'612.5
2018-Feb-19 12:30N 35°10' E 139°44'612.3
2018-Feb-19 12:00N 35°16' E 139°46'612.9
2018-Feb-19 11:30N 35°22' E 139°42'611.6
2018-Feb-19 11:00N 35°26' E 139°46'612.3
2018-Feb-19 10:30N 35°31' E 139°52'712.4
2018-Feb-19 09:54N 35°36' E 139°57'3 0.8
2018-Feb-19 06:00N 35°40' E 139°58'3 6.2
2018-Feb-19 05:31N 35°37' E 139°58'0 0.1
2018-Feb-19 04:58N 35°37' E 139°58'1 2.1
2018-Feb-19 04:30N 35°36' E 139°58'611.6
2018-Feb-19 03:59N 35°31' E 139°53'611.3
2018-Feb-19 03:30N 35°27' E 139°49'611.3
2018-Feb-19 03:00N 35°24' E 139°43'4 7.8
2018-Feb-19 02:30N 35°23' E 139°38'0 0.1
2018-Feb-19 01:58N 35°23' E 139°38'0 0.0
2018-Feb-19 01:28N 35°23' E 139°38'0 0.0
2018-Feb-19 00:58N 35°23' E 139°38'0 0.0
2018-Feb-19 00:22N 35°23' E 139°38'0 0.0
2018-Feb-18 23:58N 35°23' E 139°38'0 0.0
2018-Feb-18 23:28N 35°23' E 139°38'0 0.0
2018-Feb-18 22:59N 35°23' E 139°38'1 2.3
2018-Feb-18 22:31N 35°24' E 139°40'0 0.7
2018-Feb-18 21:57N 35°23' E 139°40'0 0.0
2018-Feb-18 21:30N 35°23' E 139°40'0 0.0
2018-Feb-18 21:00N 35°23' E 139°40'0 0.0
2018-Feb-18 20:30N 35°23' E 139°40'0 0.1
2018-Feb-18 20:00N 35°23' E 139°40'0 0.0
2018-Feb-18 19:30N 35°23' E 139°40'0 0.0
2018-Feb-18 19:00N 35°23' E 139°40'0 0.1
2018-Feb-18 18:30N 35°23' E 139°40'0 0.1
2018-Feb-18 18:00N 35°23' E 139°40'3 5.8
2018-Feb-18 17:31N 35°21' E 139°42'612.0
2018-Feb-18 17:00N 35°16' E 139°46'510.6
2018-Feb-18 16:30N 35°11' E 139°46'510.8
2018-Feb-18 16:01N 35°06' E 139°44'611.1
2018-Feb-18 15:30N 35°02' E 139°38'711.5
2018-Feb-18 14:56N 34°58' E 139°32'1011.8
2018-Feb-18 14:05N 34°52' E 139°22'212.4
2018-Feb-18 13:55N 34°51' E 139°20'612.3
2018-Feb-18 13:28N 34°48' E 139°15'912.1
2018-Feb-18 12:44N 34°42' E 139°06'311.4
2018-Feb-18 12:30N 34°41' E 139°04'611.3
2018-Feb-18 11:59N 34°37' E 138°58'611.5
2018-Feb-18 11:28N 34°35' E 138°51'511.2
2018-Feb-18 11:00N 34°34' E 138°45'711.3
2018-Feb-18 10:25N 34°33' E 138°37'511.8
2018-Feb-18 09:58N 34°33' E 138°31'1511.4
2018-Feb-18 08:41N 34°33' E 138°13'1212.2
2018-Feb-18 07:40N 34°34' E 137°58'6210.3
2018-Feb-18 01:38N 34°10' E 136°48'212.0
2018-Feb-18 01:27N 34°09' E 136°46'86 8.8
2018-Feb-17 15:37N 33°51' E 135°04'212.9
2018-Feb-17 15:27N 33°52' E 135°02'712.1
2018-Feb-17 14:53N 33°57' E 134°57'511.8
2018-Feb-17 14:26N 34°01' E 134°53'512.0
2018-Feb-17 14:01N 34°05' E 134°48'712.2
2018-Feb-17 13:28N 34°10' E 134°43'511.4
2018-Feb-17 12:59N 34°14' E 134°39'510.2
2018-Feb-17 12:30N 34°16' E 134°33'0 0.5
2018-Feb-17 11:50N 34°16' E 134°33'0 0.0
2018-Feb-17 10:20N 34°16' E 134°33'0 0.0
2018-Feb-17 08:26N 34°16' E 134°33'1 1.4
2018-Feb-17 08:00N 34°16' E 134°33'611.5
2018-Feb-17 07:30N 34°19' E 134°27'8811.9
2018-Feb-17 00:07N 34°06' E 132°41'112.5
2018-Feb-17 00:00N 34°05' E 132°40'812.6
2018-Feb-16 23:24N 34°02' E 132°32'7 6.9
2018-Feb-16 22:24N 34°08' E 132°29'410.3
2018-Feb-16 22:00N 34°12' E 132°30'2 4.3
2018-Feb-16 21:30N 34°14' E 132°32'0 0.0
2018-Feb-16 21:00N 34°14' E 132°32'0 0.0
2018-Feb-16 20:30N 34°14' E 132°32'0 0.0
2018-Feb-16 20:00N 34°14' E 132°32'0 0.0
2018-Feb-16 19:30N 34°14' E 132°32'0 0.0
2018-Feb-16 19:00N 34°14' E 132°32'0 0.0
2018-Feb-16 18:27N 34°14' E 132°32'0 0.0
2018-Feb-16 18:00N 34°14' E 132°32'0 0.0
2018-Feb-16 17:30N 34°14' E 132°32'0 0.0
2018-Feb-16 17:00N 34°14' E 132°32'0 0.0
2018-Feb-16 16:24N 34°14' E 132°32'0 0.0
2018-Feb-16 16:00N 34°14' E 132°32'0 0.0
2018-Feb-16 15:30N 34°14' E 132°32'0 0.0
2018-Feb-16 15:00N 34°14' E 132°32'0 0.0
2018-Feb-16 14:30N 34°14' E 132°32'0 0.0
2018-Feb-16 14:00N 34°14' E 132°32'0 0.0
2018-Feb-16 13:30N 34°14' E 132°32'0 0.0
2018-Feb-16 13:00N 34°14' E 132°32'0 0.0
2018-Feb-16 12:30N 34°14' E 132°32'0 0.0
2018-Feb-16 12:00N 34°14' E 132°32'0 0.0
2018-Feb-16 11:27N 34°14' E 132°32'0 0.0
2018-Feb-16 11:00N 34°14' E 132°32'0 0.0
2018-Feb-16 10:30N 34°14' E 132°32'1 1.4
2018-Feb-16 10:00N 34°14' E 132°32'0 0.2
2018-Feb-16 09:30N 34°14' E 132°32'0 0.1
2018-Feb-16 08:57N 34°14' E 132°32'0 0.0
2018-Feb-16 08:30N 34°14' E 132°32'0 0.0
2018-Feb-16 08:00N 34°14' E 132°32'0 0.0
2018-Feb-16 07:30N 34°14' E 132°32'0 0.0
2018-Feb-16 07:00N 34°14' E 132°32'0 0.1
2018-Feb-16 06:30N 34°14' E 132°32'1 1.3
2018-Feb-16 06:00N 34°13' E 132°32'0 0.0
2018-Feb-16 05:28N 34°13' E 132°32'0 0.0
2018-Feb-16 04:55N 34°13' E 132°32'0 0.0
2018-Feb-16 04:28N 34°13' E 132°32'0 0.0
2018-Feb-16 03:58N 34°13' E 132°32'0 0.0
2018-Feb-16 03:28N 34°13' E 132°32'0 0.0
2018-Feb-16 02:58N 34°13' E 132°32'0 0.0
2018-Feb-16 02:28N 34°13' E 132°32'0 0.0
2018-Feb-16 01:58N 34°13' E 132°32'0 0.0
2018-Feb-16 01:28N 34°13' E 132°32'0 0.0
2018-Feb-16 00:58N 34°13' E 132°32'0 0.0
2018-Feb-16 00:28N 34°13' E 132°32'0 0.0
2018-Feb-15 23:58N 34°13' E 132°32'0 0.0
2018-Feb-15 23:19N 34°13' E 132°32'0 0.0
2018-Feb-15 22:58N 34°13' E 132°32'0 0.0
2018-Feb-15 22:22N 34°13' E 132°32'0 0.0
2018-Feb-15 22:00N 34°13' E 132°32'1 1.1
2018-Feb-15 21:28N 34°14' E 132°32'0 0.1
2018-Feb-15 20:58N 34°14' E 132°32'0 0.0
2018-Feb-15 20:28N 34°14' E 132°32'0 0.0
2018-Feb-15 19:58N 34°14' E 132°32'0 0.0
2018-Feb-15 19:28N 34°14' E 132°32'0 0.0
2018-Feb-15 18:58N 34°14' E 132°32'0 0.0
2018-Feb-15 18:28N 34°14' E 132°32'0 0.0
2018-Feb-15 17:58N 34°14' E 132°32'0 0.0
2018-Feb-15 17:28N 34°14' E 132°32'0 0.0
2018-Feb-15 16:58N 34°14' E 132°32'0 0.0
2018-Feb-15 16:25N 34°14' E 132°32'0 0.0
2018-Feb-15 15:58N 34°14' E 132°32'0 0.0
2018-Feb-15 15:28N 34°14' E 132°32'0 0.0
2018-Feb-15 14:58N 34°14' E 132°32'0 0.0
2018-Feb-15 14:28N 34°14' E 132°32'0 0.0
2018-Feb-15 13:58N 34°14' E 132°32'0 0.0
2018-Feb-15 13:28N 34°14' E 132°32'0 0.0
2018-Feb-15 12:58N 34°14' E 132°32'0 0.1
2018-Feb-15 12:28N 34°14' E 132°32'0 0.0
2018-Feb-15 11:58N 34°14' E 132°32'0 0.0
2018-Feb-15 11:28N 34°14' E 132°32'0 0.1
2018-Feb-15 10:58N 34°14' E 132°32'0 0.0
2018-Feb-15 10:28N 34°14' E 132°32'0 0.1
2018-Feb-15 09:58N 34°14' E 132°32'0 0.0
2018-Feb-15 09:28N 34°14' E 132°32'0 0.0
2018-Feb-15 08:58N 34°14' E 132°32'0 0.0
2018-Feb-15 08:28N 34°14' E 132°32'0 0.1
2018-Feb-15 07:58N 34°14' E 132°32'0 0.1
2018-Feb-15 07:25N 34°14' E 132°32'1 1.6
2018-Feb-15 07:00N 34°13' E 132°31'510.7
2018-Feb-15 06:30N 34°08' E 132°30'6 7.2
2018-Feb-15 05:39N 34°02' E 132°31'310.9
2018-Feb-15 05:22N 34°03' E 132°34'411.9
2018-Feb-15 05:00N 34°05' E 132°39'  
Track history (hours):
 
Tides and Currents Weather Stations Pressure Air Temp Water Temp Dewpoint Dewpoint Depression Visibility Wind Speed Wind Dir Waves Ship Positions

Shin Itikawa Maru

Last reported at 2018-Feb-25 03:14 UTC. Time now 2018-Feb-25 06:13 UTC.
Position N 34°35' E 138°48'.

Length 84 m; draft 4.1 m.

Type: Cargo ship. MMSI: 431004252.

Date/timePositionNaut miles runAvg speedWind from/ knotsBaromVisibWave heightAir tempDewpointWater temp
2018-Feb-25 03:14N 34°35' E 138°48'312.1
2018-Feb-25 02:59N 34°35' E 138°51'711.4
2018-Feb-25 02:23N 34°38' E 138°59'712.0
2018-Feb-25 01:50N 34°42' E 139°05'512.3
2018-Feb-25 01:26N 34°46' E 139°09'1411.4
2018-Feb-25 00:13N 34°56' E 139°21'411.1
2018-Feb-24 23:52N 34°58' E 139°25'711.0
2018-Feb-24 23:11N 35°02' E 139°33'211.6
2018-Feb-24 22:59N 35°03' E 139°35'511.5
2018-Feb-24 22:30N 35°06' E 139°40'611.3
2018-Feb-24 22:00N 35°11' E 139°45'510.9
2018-Feb-24 21:30N 35°16' E 139°46'611.1
2018-Feb-24 21:00N 35°21' E 139°42'510.7
2018-Feb-24 20:30N 35°26' E 139°45'611.5
2018-Feb-24 20:00N 35°29' E 139°50'611.8
2018-Feb-24 19:30N 35°34' E 139°55'510.6
2018-Feb-24 19:00N 35°39' E 139°58'1 0.1
2018-Feb-24 13:41N 35°38' E 139°59'2 7.8
2018-Feb-24 13:28N 35°36' E 139°58'0 0.0
2018-Feb-24 11:18N 35°36' E 139°58'0 0.0
2018-Feb-24 11:00N 35°36' E 139°58'0 0.0
2018-Feb-24 10:15N 35°36' E 139°58'0 0.0
2018-Feb-24 09:24N 35°36' E 139°58'0 0.0
2018-Feb-24 09:00N 35°36' E 139°58'0 0.0
2018-Feb-24 08:27N 35°36' E 139°58'0 0.0
2018-Feb-24 08:00N 35°36' E 139°58'0 0.0
2018-Feb-24 07:30N 35°36' E 139°58'0 0.0
2018-Feb-24 06:42N 35°36' E 139°58'0 0.0
2018-Feb-24 06:30N 35°36' E 139°58'0 0.0
2018-Feb-24 05:54N 35°36' E 139°58'0 0.0
2018-Feb-24 04:30N 35°36' E 139°58'0 0.0
2018-Feb-24 03:06N 35°36' E 139°58'0 0.0
2018-Feb-24 02:54N 35°36' E 139°58'0 0.0
2018-Feb-24 02:30N 35°36' E 139°58'5 7.9
2018-Feb-24 01:52N 35°32' E 139°55'411.5
2018-Feb-24 01:30N 35°29' E 139°52'611.4
2018-Feb-24 01:00N 35°25' E 139°46'510.7
2018-Feb-24 00:31N 35°24' E 139°40'1 2.6
2018-Feb-24 00:00N 35°23' E 139°38'0 0.0
2018-Feb-23 23:28N 35°23' E 139°38'0 0.0
2018-Feb-23 23:01N 35°23' E 139°38'0 1.0
2018-Feb-23 22:31N 35°24' E 139°39'4 8.7
2018-Feb-23 22:00N 35°20' E 139°42'612.0
2018-Feb-23 21:31N 35°16' E 139°47'611.8
2018-Feb-23 21:00N 35°10' E 139°46'611.6
2018-Feb-23 20:30N 35°05' E 139°42'611.7
2018-Feb-23 20:00N 35°01' E 139°37'711.5
2018-Feb-23 19:26N 34°57' E 139°30'1312.0
2018-Feb-23 18:21N 34°49' E 139°17'411.9
2018-Feb-23 17:59N 34°46' E 139°13'711.6
2018-Feb-23 17:22N 34°42' E 139°07'411.0
2018-Feb-23 16:59N 34°39' E 139°02'511.1
2018-Feb-23 16:30N 34°36' E 138°57'1310.5
2018-Feb-23 15:16N 34°34' E 138°42'310.6
2018-Feb-23 14:59N 34°34' E 138°38'610.5
2018-Feb-23 14:26N 34°33' E 138°31'511.1
2018-Feb-23 13:57N 34°33' E 138°25'611.5
2018-Feb-23 13:28N 34°33' E 138°18'711.6
2018-Feb-23 12:53N 34°31' E 138°10'160 9.4
2018-Feb-22 19:53N 33°52' E 135°02'512.0
2018-Feb-22 19:30N 33°56' E 134°58'611.7
2018-Feb-22 19:00N 34°00' E 134°54'612.1
2018-Feb-22 18:30N 34°05' E 134°49'612.2
2018-Feb-22 18:00N 34°09' E 134°44'612.0
2018-Feb-22 17:30N 34°14' E 134°39'612.1
2018-Feb-22 17:00N 34°17' E 134°33'611.3
2018-Feb-22 16:30N 34°19' E 134°27'5 9.6
2018-Feb-22 16:00N 34°21' E 134°22'910.9
2018-Feb-22 15:10N 34°25' E 134°12'2 0.1
2018-Feb-20 16:31N 34°24' E 134°15'111.6
2018-Feb-20 16:28N 34°24' E 134°15'511.2
2018-Feb-20 16:00N 34°23' E 134°21'711.9
2018-Feb-20 15:27N 34°19' E 134°28'512.1
2018-Feb-20 15:00N 34°17' E 134°34'611.5
2018-Feb-20 14:28N 34°13' E 134°40'612.6
2018-Feb-20 14:00N 34°09' E 134°45'611.8
2018-Feb-20 13:30N 34°04' E 134°49'612.1
2018-Feb-20 13:01N 33°60' E 134°54'612.2
2018-Feb-20 12:30N 33°55' E 134°59'17810.0
2018-Feb-19 18:46N 34°33' E 138°29'1611.9
2018-Feb-19 17:25N 34°35' E 138°49'511.3
2018-Feb-19 17:00N 34°35' E 138°54'711.0
2018-Feb-19 16:20N 34°40' E 139°02'412.3
2018-Feb-19 16:00N 34°43' E 139°05'712.6
2018-Feb-19 15:28N 34°48' E 139°10'1511.9
2018-Feb-19 14:11N 34°58' E 139°24'311.9
2018-Feb-19 13:58N 34°59' E 139°27'611.7
2018-Feb-19 13:29N 35°02' E 139°33'612.1
2018-Feb-19 13:00N 35°05' E 139°39'612.5
2018-Feb-19 12:30N 35°10' E 139°44'612.3
2018-Feb-19 12:00N 35°16' E 139°46'612.9
2018-Feb-19 11:30N 35°22' E 139°42'611.6
2018-Feb-19 11:00N 35°26' E 139°46'612.3
2018-Feb-19 10:30N 35°31' E 139°52'712.4
2018-Feb-19 09:54N 35°36' E 139°57'3 0.8
2018-Feb-19 06:00N 35°40' E 139°58'3 6.2
2018-Feb-19 05:31N 35°37' E 139°58'0 0.1
2018-Feb-19 04:58N 35°37' E 139°58'1 2.1
2018-Feb-19 04:30N 35°36' E 139°58'611.6
2018-Feb-19 03:59N 35°31' E 139°53'611.3
2018-Feb-19 03:30N 35°27' E 139°49'611.3
2018-Feb-19 03:00N 35°24' E 139°43'4 7.8
2018-Feb-19 02:30N 35°23' E 139°38'0 0.1
2018-Feb-19 01:58N 35°23' E 139°38'0 0.0
2018-Feb-19 01:28N 35°23' E 139°38'0 0.0
2018-Feb-19 00:58N 35°23' E 139°38'0 0.0
2018-Feb-19 00:22N 35°23' E 139°38'0 0.0
2018-Feb-18 23:58N 35°23' E 139°38'0 0.0
2018-Feb-18 23:28N 35°23' E 139°38'0 0.0
2018-Feb-18 22:59N 35°23' E 139°38'1 2.3
2018-Feb-18 22:31N 35°24' E 139°40'0 0.7
2018-Feb-18 21:57N 35°23' E 139°40'0 0.0
2018-Feb-18 21:30N 35°23' E 139°40'0 0.0
2018-Feb-18 21:00N 35°23' E 139°40'0 0.0
2018-Feb-18 20:30N 35°23' E 139°40'0 0.1
2018-Feb-18 20:00N 35°23' E 139°40'0 0.0
2018-Feb-18 19:30N 35°23' E 139°40'0 0.0
2018-Feb-18 19:00N 35°23' E 139°40'0 0.1
2018-Feb-18 18:30N 35°23' E 139°40'0 0.1
2018-Feb-18 18:00N 35°23' E 139°40'3 5.8
2018-Feb-18 17:31N 35°21' E 139°42'612.0
2018-Feb-18 17:00N 35°16' E 139°46'510.6
2018-Feb-18 16:30N 35°11' E 139°46'510.8
2018-Feb-18 16:01N 35°06' E 139°44'611.1
2018-Feb-18 15:30N 35°02' E 139°38'711.5
2018-Feb-18 14:56N 34°58' E 139°32'1011.8
2018-Feb-18 14:05N 34°52' E 139°22'212.4
2018-Feb-18 13:55N 34°51' E 139°20'612.3
2018-Feb-18 13:28N 34°48' E 139°15'912.1
2018-Feb-18 12:44N 34°42' E 139°06'311.4
2018-Feb-18 12:30N 34°41' E 139°04'611.3
2018-Feb-18 11:59N 34°37' E 138°58'611.5
2018-Feb-18 11:28N 34°35' E 138°51'511.2
2018-Feb-18 11:00N 34°34' E 138°45'711.3
2018-Feb-18 10:25N 34°33' E 138°37'511.8
2018-Feb-18 09:58N 34°33' E 138°31'1511.4
2018-Feb-18 08:41N 34°33' E 138°13'1212.2
2018-Feb-18 07:40N 34°34' E 137°58'6210.3
2018-Feb-18 01:38N 34°10' E 136°48'212.0
2018-Feb-18 01:27N 34°09' E 136°46'86 8.8
2018-Feb-17 15:37N 33°51' E 135°04'212.9
2018-Feb-17 15:27N 33°52' E 135°02'712.1
2018-Feb-17 14:53N 33°57' E 134°57'511.8
2018-Feb-17 14:26N 34°01' E 134°53'512.0
2018-Feb-17 14:01N 34°05' E 134°48'712.2
2018-Feb-17 13:28N 34°10' E 134°43'511.4
2018-Feb-17 12:59N 34°14' E 134°39'510.2
2018-Feb-17 12:30N 34°16' E 134°33'0 0.5
2018-Feb-17 11:50N 34°16' E 134°33'0 0.0
2018-Feb-17 10:20N 34°16' E 134°33'0 0.0
2018-Feb-17 08:26N 34°16' E 134°33'1 1.4
2018-Feb-17 08:00N 34°16' E 134°33'611.5
2018-Feb-17 07:30N 34°19' E 134°27'8811.9
2018-Feb-17 00:07N 34°06' E 132°41'112.5
2018-Feb-17 00:00N 34°05' E 132°40'812.6
2018-Feb-16 23:24N 34°02' E 132°32'7 6.9
2018-Feb-16 22:24N 34°08' E 132°29'410.3
2018-Feb-16 22:00N 34°12' E 132°30'2 4.3
2018-Feb-16 21:30N 34°14' E 132°32'0 0.0
2018-Feb-16 21:00N 34°14' E 132°32'0 0.0
2018-Feb-16 20:30N 34°14' E 132°32'0 0.0
2018-Feb-16 20:00N 34°14' E 132°32'0 0.0
2018-Feb-16 19:30N 34°14' E 132°32'0 0.0
2018-Feb-16 19:00N 34°14' E 132°32'0 0.0
2018-Feb-16 18:27N 34°14' E 132°32'0 0.0
2018-Feb-16 18:00N 34°14' E 132°32'0 0.0
2018-Feb-16 17:30N 34°14' E 132°32'0 0.0
2018-Feb-16 17:00N 34°14' E 132°32'0 0.0
2018-Feb-16 16:24N 34°14' E 132°32'0 0.0
2018-Feb-16 16:00N 34°14' E 132°32'0 0.0
2018-Feb-16 15:30N 34°14' E 132°32'0 0.0
2018-Feb-16 15:00N 34°14' E 132°32'0 0.0
2018-Feb-16 14:30N 34°14' E 132°32'0 0.0
2018-Feb-16 14:00N 34°14' E 132°32'0 0.0
2018-Feb-16 13:30N 34°14' E 132°32'0 0.0
2018-Feb-16 13:00N 34°14' E 132°32'0 0.0
2018-Feb-16 12:30N 34°14' E 132°32'0 0.0
2018-Feb-16 12:00N 34°14' E 132°32'0 0.0
2018-Feb-16 11:27N 34°14' E 132°32'0 0.0
2018-Feb-16 11:00N 34°14' E 132°32'0 0.0
2018-Feb-16 10:30N 34°14' E 132°32'1 1.4
2018-Feb-16 10:00N 34°14' E 132°32'0 0.2
2018-Feb-16 09:30N 34°14' E 132°32'0 0.1
2018-Feb-16 08:57N 34°14' E 132°32'0 0.0
2018-Feb-16 08:30N 34°14' E 132°32'0 0.0
2018-Feb-16 08:00N 34°14' E 132°32'0 0.0
2018-Feb-16 07:30N 34°14' E 132°32'0 0.0
2018-Feb-16 07:00N 34°14' E 132°32'0 0.1
2018-Feb-16 06:30N 34°14' E 132°32'1 1.3
2018-Feb-16 06:00N 34°13' E 132°32'0 0.0
2018-Feb-16 05:28N 34°13' E 132°32'0 0.0
2018-Feb-16 04:55N 34°13' E 132°32'0 0.0
2018-Feb-16 04:28N 34°13' E 132°32'0 0.0
2018-Feb-16 03:58N 34°13' E 132°32'0 0.0
2018-Feb-16 03:28N 34°13' E 132°32'0 0.0
2018-Feb-16 02:58N 34°13' E 132°32'0 0.0
2018-Feb-16 02:28N 34°13' E 132°32'0 0.0
2018-Feb-16 01:58N 34°13' E 132°32'0 0.0
2018-Feb-16 01:28N 34°13' E 132°32'0 0.0
2018-Feb-16 00:58N 34°13' E 132°32'0 0.0
2018-Feb-16 00:28N 34°13' E 132°32'0 0.0
2018-Feb-15 23:58N 34°13' E 132°32'0 0.0
2018-Feb-15 23:19N 34°13' E 132°32'0 0.0
2018-Feb-15 22:58N 34°13' E 132°32'0 0.0
2018-Feb-15 22:22N 34°13' E 132°32'0 0.0
2018-Feb-15 22:00N 34°13' E 132°32'1 1.1
2018-Feb-15 21:28N 34°14' E 132°32'0 0.1
2018-Feb-15 20:58N 34°14' E 132°32'0 0.0
2018-Feb-15 20:28N 34°14' E 132°32'0 0.0
2018-Feb-15 19:58N 34°14' E 132°32'0 0.0
2018-Feb-15 19:28N 34°14' E 132°32'0 0.0
2018-Feb-15 18:58N 34°14' E 132°32'0 0.0
2018-Feb-15 18:28N 34°14' E 132°32'0 0.0
2018-Feb-15 17:58N 34°14' E 132°32'0 0.0
2018-Feb-15 17:28N 34°14' E 132°32'0 0.0
2018-Feb-15 16:58N 34°14' E 132°32'0 0.0
2018-Feb-15 16:25N 34°14' E 132°32'0 0.0
2018-Feb-15 15:58N 34°14' E 132°32'0 0.0
2018-Feb-15 15:28N 34°14' E 132°32'0 0.0
2018-Feb-15 14:58N 34°14' E 132°32'0 0.0
2018-Feb-15 14:28N 34°14' E 132°32'0 0.0
2018-Feb-15 13:58N 34°14' E 132°32'0 0.0
2018-Feb-15 13:28N 34°14' E 132°32'0 0.0
2018-Feb-15 12:58N 34°14' E 132°32'0 0.1
2018-Feb-15 12:28N 34°14' E 132°32'0 0.0
2018-Feb-15 11:58N 34°14' E 132°32'0 0.0
2018-Feb-15 11:28N 34°14' E 132°32'0 0.1
2018-Feb-15 10:58N 34°14' E 132°32'0 0.0
2018-Feb-15 10:28N 34°14' E 132°32'0 0.1
2018-Feb-15 09:58N 34°14' E 132°32'0 0.0
2018-Feb-15 09:28N 34°14' E 132°32'0 0.0
2018-Feb-15 08:58N 34°14' E 132°32'0 0.0
2018-Feb-15 08:28N 34°14' E 132°32'0 0.1
2018-Feb-15 07:58N 34°14' E 132°32'0 0.1
2018-Feb-15 07:25N 34°14' E 132°32'1 1.6
2018-Feb-15 07:00N 34°13' E 132°31'510.7
2018-Feb-15 06:30N 34°08' E 132°30'6 7.2
2018-Feb-15 05:39N 34°02' E 132°31'310.9
2018-Feb-15 05:22N 34°03' E 132°34'411.9
2018-Feb-15 05:00N 34°05' E 132°39'  

Dump ship's entire track history